La Crosse, WI (54603)

7:15 AM CST on February 01, 2015 (GMT -0600)
La Crosse - Downtown | Change Station
CLOSE
Current Station
Personal Weather Station
Location: La Crosse, WI
Elevation: 682 ft
Nearby Weather Stations
Active Advisory: Winter Weather Advisory Active Notice: Public Information Statement

Elev 682 ft 43.82 °N, 91.25 °W | Updated 12 minutes ago

Light Snow
Light Snow
15.4 °F
Feels Like 6 °F
N
7.0
Wind Variable Wind from NNE
Gusts 29.0 mph

Today
High -- | Low -- °F
--% Chance of Precip.
Yesterday
High -- | Low -- °F
Precip. -- in
7:22 AM 5:15 PM
Waxing Gibbous, 95% visible
Pressure 30.19 in
Visibility 2.5 miles
Clouds Overcast 2200 ft
Windchill 6 °F
Dew Point 13 °F
Humidity 89%
Rainfall 0.00 in
Snow Depth Not available.
UV 0 out of 12
Pollen .10 out of 12
Air Quality Not available.
Flu Activity Not available.
METAR KLSE 011253Z 05015G21KT 2 1/2SM -SN OVC022 M08/M12 A3014 RMK AO2 SLP221 P0002 T10831122

More Conditions Fewer Conditions

Pressure 30.19 in
Visibility 2.5 miles
Clouds Overcast 2200 ft
Windchill 6 °F
Dew Point 13 °F
Humidity 89%
Rainfall 0.00 in
Snow Depth Not available.
UV 0 out of 12
Pollen .10 out of 12
Air Quality Not available.
Flu Activity Not available.
METAR KLSE 011253Z 05015G21KT 2 1/2SM -SN OVC022 M08/M12 A3014 RMK AO2 SLP221 P0002 T10831122

More Conditions Fewer Conditions

10-Day Weather Forecast

Almanac

Astronomy

Feb. 01, 2015 Rise Set
Actual Time
Civil Twilight
Nautical Twilight
Astronomical Twilight
Moon
Length of Visible Light
Length of Day
Tomorrow will be .
, % of the Moon is Illuminated

Today's Extremes

State Highs State Lows

Community

WunderPhotos

Upload Photos

1,792,359 photos uploaded!

WunderBlogs® & News

Nearby

Air Quality

  Air Quality AQ Index Pollutant
Not available.

Snow Depth

Station Depth Elevation

Earthquake Activity

City Distance Mag. Time & Date
Minimum magnitude displayed is 2.5.

Coastal Water Temperatures

Place Temperature

Nearby Weather Stations